createdAt,value
2019-03-21T00:00:23.092Z,1028.36
2019-03-21T00:01:03.664Z,1028.43
2019-03-21T00:01:44.262Z,1028.39
2019-03-21T00:02:24.850Z,1028.38
2019-03-21T00:03:05.403Z,1028.39
2019-03-21T00:03:45.964Z,1028.37
2019-03-21T00:04:26.527Z,1028.4
2019-03-21T00:05:07.093Z,1028.45
2019-03-21T00:05:47.661Z,1028.49
2019-03-21T00:06:28.237Z,1028.48
2019-03-21T00:07:08.800Z,1028.52
2019-03-21T00:07:49.360Z,1028.52
2019-03-21T00:08:29.925Z,1028.52
2019-03-21T00:09:10.532Z,1028.55
2019-03-21T00:09:51.106Z,1028.54
2019-03-21T00:10:31.732Z,1028.53
2019-03-21T00:11:12.319Z,1028.54
2019-03-21T00:11:52.904Z,1028.5
2019-03-21T00:12:33.472Z,1028.49
2019-03-21T00:13:14.035Z,1028.5
2019-03-21T00:13:54.624Z,1028.47
2019-03-21T00:14:35.198Z,1028.45
2019-03-21T00:15:15.761Z,1028.49
2019-03-21T00:15:56.349Z,1028.48
2019-03-21T00:16:36.881Z,1028.54
2019-03-21T00:17:17.452Z,1028.44
2019-03-21T00:17:58.023Z,1028.47
2019-03-21T00:18:38.685Z,1028.45
2019-03-21T00:19:19.223Z,1028.42
2019-03-21T00:19:59.838Z,1028.44
2019-03-21T00:20:40.434Z,1028.47
2019-03-21T00:21:21.008Z,1028.48
2019-03-21T00:22:01.563Z,1028.42
2019-03-21T00:22:42.122Z,1028.42
2019-03-21T00:23:22.692Z,1028.41
2019-03-21T00:24:03.256Z,1028.47
2019-03-21T00:24:43.819Z,1028.42
2019-03-21T00:25:24.391Z,1028.42
2019-03-21T00:26:04.970Z,1028.44
2019-03-21T00:26:45.563Z,1028.45
2019-03-21T00:27:26.113Z,1028.44
2019-03-21T00:28:06.702Z,1028.44
2019-03-21T00:28:47.255Z,1028.44
2019-03-21T00:29:27.817Z,1028.49
2019-03-21T00:30:08.392Z,1028.42
2019-03-21T00:30:48.976Z,1028.43
2019-03-21T00:31:29.537Z,1028.5
2019-03-21T00:32:10.096Z,1028.52
2019-03-21T00:32:50.657Z,1028.45
2019-03-21T00:33:31.254Z,1028.42
2019-03-21T00:34:11.827Z,1028.4
2019-03-21T00:34:52.486Z,1028.41
2019-03-21T00:35:33.039Z,1028.44
2019-03-21T00:36:13.593Z,1028.43
2019-03-21T00:36:54.228Z,1028.43
2019-03-21T00:37:34.736Z,1028.4
2019-03-21T00:38:15.304Z,1028.42
2019-03-21T00:38:55.876Z,1028.39
2019-03-21T00:39:36.442Z,1028.4
2019-03-21T00:40:17.032Z,1028.37
2019-03-21T00:40:57.578Z,1028.42
2019-03-21T00:41:38.152Z,1028.43
2019-03-21T00:42:18.708Z,1028.42
2019-03-21T00:42:59.397Z,1028.46
2019-03-21T00:43:39.987Z,1028.51
2019-03-21T00:44:20.554Z,1028.45
2019-03-21T00:45:01.126Z,1028.49
2019-03-21T00:45:41.688Z,1028.5
2019-03-21T00:46:22.245Z,1028.45
2019-03-21T00:47:02.821Z,1028.47
2019-03-21T00:47:43.396Z,1028.47
2019-03-21T00:48:23.995Z,1028.46
2019-03-21T00:49:04.548Z,1028.48
2019-03-21T00:49:45.133Z,1028.45
2019-03-21T00:50:25.668Z,1028.46
2019-03-21T00:51:06.226Z,1028.49
2019-03-21T00:51:46.828Z,1028.48
2019-03-21T00:52:27.394Z,1028.49
2019-03-21T00:53:07.983Z,1028.52
2019-03-21T00:53:48.559Z,1028.5
2019-03-21T00:54:29.133Z,1028.49
2019-03-21T00:55:09.712Z,1028.48
2019-03-21T00:55:50.268Z,1028.55
2019-03-21T00:56:30.829Z,1028.47
2019-03-21T00:57:11.383Z,1028.48
2019-03-21T00:57:51.940Z,1028.47
2019-03-21T00:58:32.496Z,1028.49
2019-03-21T00:59:13.061Z,1028.49
2019-03-21T00:59:53.662Z,1028.52
2019-03-21T01:00:34.247Z,1028.48
2019-03-21T01:01:14.802Z,1028.47
2019-03-21T01:01:55.363Z,1028.49
2019-03-21T01:02:35.930Z,1028.48
2019-03-21T01:03:16.497Z,1028.49
2019-03-21T01:03:57.055Z,1028.45
2019-03-21T01:04:37.647Z,1028.5
2019-03-21T01:05:18.227Z,1028.45
2019-03-21T01:05:58.792Z,1028.44
2019-03-21T01:06:39.394Z,1028.44
2019-03-21T01:07:19.936Z,1028.43
2019-03-21T01:08:00.500Z,1028.4
2019-03-21T01:08:41.071Z,1028.4
2019-03-21T01:09:21.666Z,1028.43
2019-03-21T01:10:02.221Z,1028.44
2019-03-21T01:10:42.791Z,1028.45
2019-03-21T01:11:23.360Z,1028.39
2019-03-21T01:12:03.936Z,1028.39
2019-03-21T01:12:44.492Z,1028.4
2019-03-21T01:13:25.066Z,1028.4
2019-03-21T01:14:05.647Z,1028.41
2019-03-21T01:14:46.229Z,1028.41
2019-03-21T01:15:26.781Z,1028.39
2019-03-21T01:16:07.343Z,1028.42
2019-03-21T01:16:47.936Z,1028.4
2019-03-21T01:17:28.500Z,1028.4
2019-03-21T01:18:09.062Z,1028.42
2019-03-21T01:18:49.627Z,1028.45
2019-03-21T01:19:30.193Z,1028.4
2019-03-21T01:20:10.757Z,1028.4
2019-03-21T01:20:51.324Z,1028.42
2019-03-21T01:21:31.926Z,1028.43
2019-03-21T01:22:12.482Z,1028.39
2019-03-21T01:22:53.043Z,1028.39
2019-03-21T01:23:33.618Z,1028.39
2019-03-21T01:24:14.183Z,1028.39
2019-03-21T01:24:54.751Z,1028.36
2019-03-21T01:25:35.300Z,1028.38
2019-03-21T01:26:15.876Z,1028.38
2019-03-21T01:26:56.442Z,1028.41
2019-03-21T01:27:37.000Z,1028.41
2019-03-21T01:28:17.556Z,1028.41
2019-03-21T01:28:58.122Z,1028.41
2019-03-21T01:29:38.681Z,1028.44
2019-03-21T01:30:19.251Z,1028.39
2019-03-21T01:30:59.846Z,1028.38
2019-03-21T01:31:40.414Z,1028.43
2019-03-21T01:32:21.007Z,1028.43
2019-03-21T01:33:01.568Z,1028.45
2019-03-21T01:33:42.158Z,1028.43
2019-03-21T01:34:22.717Z,1028.4
2019-03-21T01:35:03.282Z,1028.38
2019-03-21T01:35:43.856Z,1028.43
2019-03-21T01:36:24.418Z,1028.37
2019-03-21T01:37:04.974Z,1028.36
2019-03-21T01:37:45.546Z,1028.35
2019-03-21T01:38:26.150Z,1028.33
2019-03-21T01:39:06.699Z,1028.3
2019-03-21T01:39:47.259Z,1028.32
2019-03-21T01:40:27.816Z,1028.26
2019-03-21T01:41:08.379Z,1028.32
2019-03-21T01:41:48.961Z,1028.24
2019-03-21T01:42:29.538Z,1028.24
2019-03-21T01:43:10.111Z,1028.23
2019-03-21T01:43:50.679Z,1028.24
2019-03-21T01:44:40.461Z,1028.26
2019-03-21T01:45:11.817Z,1028.26
2019-03-21T01:45:52.384Z,1028.2
2019-03-21T01:46:32.967Z,1028.27
2019-03-21T01:47:13.529Z,1028.25
2019-03-21T01:47:54.111Z,1028.25
2019-03-21T01:48:34.691Z,1028.27
2019-03-21T01:49:15.260Z,1028.21
2019-03-21T01:49:55.822Z,1028.23
2019-03-21T01:50:36.403Z,1028.23
2019-03-21T01:51:16.966Z,1028.23
2019-03-21T01:51:57.535Z,1028.25
2019-03-21T01:52:38.098Z,1028.23
2019-03-21T01:53:18.696Z,1028.21
2019-03-21T01:53:59.286Z,1028.21
2019-03-21T01:54:39.953Z,1028.24
2019-03-21T01:55:20.499Z,1028.23
2019-03-21T01:56:01.070Z,1028.19
2019-03-21T01:56:41.648Z,1028.15
2019-03-21T01:57:22.705Z,1028.17
2019-03-21T01:58:03.268Z,1028.17
2019-03-21T01:58:43.817Z,1028.12
2019-03-21T01:59:24.418Z,1028.16
2019-03-21T02:00:04.975Z,1028.11
2019-03-21T02:00:45.561Z,1028.09
2019-03-21T02:01:26.115Z,1028.06
2019-03-21T02:02:06.686Z,1028.17
2019-03-21T02:02:47.247Z,1028.09
2019-03-21T02:03:27.818Z,1028.12
2019-03-21T02:04:08.375Z,1028.11
2019-03-21T02:04:48.946Z,1028.06
2019-03-21T02:05:29.500Z,1028.12
2019-03-21T02:06:10.051Z,1028.1
2019-03-21T02:06:50.632Z,1028.06
2019-03-21T02:07:31.192Z,1028.1
2019-03-21T02:08:11.752Z,1028.13
2019-03-21T02:08:52.321Z,1028.16
2019-03-21T02:09:32.879Z,1028.09
2019-03-21T02:10:13.451Z,1028.15
2019-03-21T02:10:54.010Z,1028.11
2019-03-21T02:11:34.559Z,1028.12
2019-03-21T02:12:15.131Z,1028.08
2019-03-21T02:12:55.698Z,1028.04
2019-03-21T02:13:36.250Z,1028.09
2019-03-21T02:14:16.829Z,1028.07
2019-03-21T02:14:57.391Z,1028.07
2019-03-21T02:15:37.990Z,1028.04
2019-03-21T02:16:18.552Z,1028.01
2019-03-21T02:16:59.129Z,1028.02
2019-03-21T02:17:39.697Z,1027.99
2019-03-21T02:18:20.271Z,1028.05
2019-03-21T02:19:00.844Z,1028.03
2019-03-21T02:19:41.414Z,1028.03
2019-03-21T02:20:21.983Z,1028
2019-03-21T02:21:02.554Z,1028.06
2019-03-21T02:21:43.144Z,1028.05
2019-03-21T02:22:23.692Z,1028.04
2019-03-21T02:23:04.266Z,1028.02
2019-03-21T02:23:44.833Z,1028.06
2019-03-21T02:24:25.416Z,1028.05
2019-03-21T02:25:05.943Z,1028.1
2019-03-21T02:25:46.510Z,1028.06
2019-03-21T02:26:27.066Z,1028.02
2019-03-21T02:27:07.629Z,1028.05
2019-03-21T02:27:48.181Z,1028.01
2019-03-21T02:28:28.740Z,1028.03
2019-03-21T02:29:09.306Z,1028.01
2019-03-21T02:29:49.943Z,1028.01
2019-03-21T02:30:30.511Z,1027.96
2019-03-21T02:31:11.072Z,1027.99
2019-03-21T02:31:51.654Z,1027.97
2019-03-21T02:32:32.214Z,1027.94
2019-03-21T02:33:12.773Z,1027.97
2019-03-21T02:33:53.341Z,1027.91
2019-03-21T02:34:33.898Z,1027.95
2019-03-21T02:35:14.473Z,1027.92
2019-03-21T02:35:55.035Z,1027.92
2019-03-21T02:36:35.584Z,1027.92
2019-03-21T02:37:16.150Z,1027.89
2019-03-21T02:37:56.723Z,1027.96
2019-03-21T02:38:37.362Z,1027.92
2019-03-21T02:39:17.867Z,1027.91
2019-03-21T02:40:00.088Z,1027.89
2019-03-21T02:40:39.045Z,1027.95
2019-03-21T02:41:19.630Z,1027.92
2019-03-21T02:42:00.188Z,1027.87
2019-03-21T02:42:40.783Z,1027.93
2019-03-21T02:43:21.368Z,1027.93
2019-03-21T02:44:01.925Z,1027.94
2019-03-21T02:44:42.567Z,1027.93
2019-03-21T02:45:23.074Z,1027.91
2019-03-21T02:46:03.639Z,1027.93
2019-03-21T02:46:44.199Z,1027.9
2019-03-21T02:47:24.750Z,1027.93
2019-03-21T02:48:05.305Z,1027.89
2019-03-21T02:48:45.857Z,1027.85
2019-03-21T02:49:26.416Z,1027.86
2019-03-21T02:50:06.983Z,1027.85
2019-03-21T02:50:47.537Z,1027.9
2019-03-21T02:51:28.103Z,1027.9
2019-03-21T02:52:08.673Z,1027.94
2019-03-21T02:52:49.235Z,1027.9
2019-03-21T02:53:29.802Z,1027.92
2019-03-21T02:54:10.357Z,1027.93
2019-03-21T02:54:50.906Z,1027.9
2019-03-21T02:55:31.494Z,1027.96
2019-03-21T02:56:12.081Z,1027.92
2019-03-21T02:56:52.627Z,1027.94
2019-03-21T02:57:33.213Z,1027.93
2019-03-21T02:58:13.787Z,1027.99
2019-03-21T02:58:54.345Z,1027.93
2019-03-21T02:59:34.893Z,1027.93
2019-03-21T03:00:15.456Z,1027.92
2019-03-21T03:00:56.003Z,1027.91
2019-03-21T03:01:36.601Z,1027.9
2019-03-21T03:02:17.169Z,1027.95
2019-03-21T03:02:57.724Z,1027.88
2019-03-21T03:03:38.276Z,1027.9
2019-03-21T03:04:18.908Z,1027.85
2019-03-21T03:04:59.482Z,1027.87
2019-03-21T03:05:40.046Z,1027.89
2019-03-21T03:06:20.610Z,1027.88
2019-03-21T03:07:01.377Z,1027.88
2019-03-21T03:07:41.738Z,1027.89
2019-03-21T03:08:22.295Z,1027.9
2019-03-21T03:09:02.899Z,1027.89
2019-03-21T03:09:43.459Z,1027.94
2019-03-21T03:10:24.017Z,1027.94
2019-03-21T03:11:04.566Z,1027.92
2019-03-21T03:11:45.130Z,1027.94
2019-03-21T03:12:25.706Z,1027.92
2019-03-21T03:13:06.282Z,1027.98
2019-03-21T03:13:46.873Z,1027.97
2019-03-21T03:14:27.426Z,1027.94
2019-03-21T03:15:21.297Z,1027.95
2019-03-21T03:15:48.546Z,1027.91
2019-03-21T03:16:29.108Z,1027.96
2019-03-21T03:17:09.653Z,1027.93
2019-03-21T03:17:50.216Z,1027.91
2019-03-21T03:18:30.768Z,1027.94
2019-03-21T03:19:11.338Z,1027.93
2019-03-21T03:19:51.906Z,1027.93
2019-03-21T03:20:32.469Z,1027.93
2019-03-21T03:21:13.017Z,1027.93
2019-03-21T03:21:53.585Z,1027.92
2019-03-21T03:22:34.202Z,1027.99
2019-03-21T03:23:14.756Z,1027.94
2019-03-21T03:23:55.309Z,1027.97
2019-03-21T03:24:35.876Z,1027.97
2019-03-21T03:25:16.451Z,1027.98
2019-03-21T03:25:57.007Z,1028
2019-03-21T03:26:37.586Z,1027.98
2019-03-21T03:27:18.122Z,1027.98
2019-03-21T03:27:58.696Z,1027.98
2019-03-21T03:28:39.284Z,1028
2019-03-21T03:29:19.837Z,1027.99
2019-03-21T03:30:00.628Z,1028.01
2019-03-21T03:30:40.971Z,1028.01
2019-03-21T03:31:21.555Z,1027.99
2019-03-21T03:32:02.127Z,1028.02
2019-03-21T03:32:42.687Z,1028.03
2019-03-21T03:33:23.250Z,1028.03
2019-03-21T03:34:03.808Z,1028.05
2019-03-21T03:34:44.414Z,1028.08
2019-03-21T03:35:24.954Z,1028.05
2019-03-21T03:36:05.497Z,1028.05
2019-03-21T03:36:46.182Z,1028.06
2019-03-21T03:37:26.668Z,1028.05
2019-03-21T03:38:07.250Z,1028.06
2019-03-21T03:38:47.825Z,1028.08
2019-03-21T03:39:28.385Z,1028.08
2019-03-21T03:40:08.950Z,1028.06
2019-03-21T03:40:49.553Z,1028.1
2019-03-21T03:41:30.114Z,1028.1
2019-03-21T03:42:10.670Z,1028.1
2019-03-21T03:42:51.279Z,1028.06
2019-03-21T03:43:31.835Z,1028.11
2019-03-21T03:44:12.395Z,1028.1
2019-03-21T03:44:52.961Z,1028.07
2019-03-21T03:45:37.666Z,1028.08
2019-03-21T03:46:14.118Z,1028.1
2019-03-21T03:46:54.708Z,1028.04
2019-03-21T03:47:35.268Z,1028.08
2019-03-21T03:48:15.890Z,1028.08
2019-03-21T03:48:56.470Z,1028.05
2019-03-21T03:49:37.041Z,1028.07
2019-03-21T03:50:17.634Z,1028.06
2019-03-21T03:50:58.221Z,1028.06
2019-03-21T03:51:38.775Z,1028.06
2019-03-21T03:52:19.354Z,1028.05
2019-03-21T03:52:59.908Z,1028.03
2019-03-21T03:53:42.360Z,1028.09
2019-03-21T03:54:21.054Z,1028.07
2019-03-21T03:55:01.596Z,1028.09
2019-03-21T03:55:42.181Z,1028.07
2019-03-21T03:56:22.743Z,1028.03
2019-03-21T03:57:03.309Z,1028.02
2019-03-21T03:57:44.347Z,1028.1
2019-03-21T03:58:24.917Z,1028.07
2019-03-21T03:59:05.486Z,1028.05
2019-03-21T03:59:46.040Z,1028.11
2019-03-21T04:00:26.607Z,1028.1
2019-03-21T04:01:07.162Z,1028.07
2019-03-21T04:01:47.722Z,1028.06
2019-03-21T04:02:28.292Z,1028.08
2019-03-21T04:03:08.885Z,1028.05
2019-03-21T04:03:49.503Z,1028.11
2019-03-21T04:04:30.070Z,1028.11
2019-03-21T04:05:10.641Z,1028.1
2019-03-21T04:05:51.231Z,1028.11
2019-03-21T04:06:31.783Z,1028.07
2019-03-21T04:07:12.349Z,1028.14
2019-03-21T04:07:52.926Z,1028.11
2019-03-21T04:08:33.494Z,1028.12
2019-03-21T04:09:14.054Z,1028.1
2019-03-21T04:09:54.629Z,1028.06
2019-03-21T04:10:35.176Z,1028.09
2019-03-21T04:11:15.759Z,1028.11
2019-03-21T04:11:56.299Z,1028.09
2019-03-21T04:12:36.859Z,1028.18
2019-03-21T04:13:17.409Z,1028.11
2019-03-21T04:13:57.959Z,1028.14
2019-03-21T04:14:38.545Z,1028.13
2019-03-21T04:15:19.103Z,1028.14
2019-03-21T04:15:59.684Z,1028.09
2019-03-21T04:16:40.256Z,1028.11
2019-03-21T04:17:20.813Z,1028.1
2019-03-21T04:18:01.375Z,1028.13
2019-03-21T04:18:41.923Z,1028.17
2019-03-21T04:19:22.468Z,1028.09
2019-03-21T04:20:03.027Z,1028.09
2019-03-21T04:20:43.602Z,1028.14
2019-03-21T04:21:24.179Z,1028.14
2019-03-21T04:22:04.767Z,1028.13
2019-03-21T04:22:45.327Z,1028.1
2019-03-21T04:23:25.895Z,1028.1
2019-03-21T04:24:06.469Z,1028.11
2019-03-21T04:24:47.024Z,1028.16
2019-03-21T04:25:27.610Z,1028.15
2019-03-21T04:26:08.178Z,1028.12
2019-03-21T04:26:48.735Z,1028.15
2019-03-21T04:27:29.294Z,1028.14
2019-03-21T04:28:09.881Z,1028.13
2019-03-21T04:28:50.463Z,1028.12
2019-03-21T04:29:31.014Z,1028.15
2019-03-21T04:30:11.592Z,1028.17
2019-03-21T04:30:52.167Z,1028.1
2019-03-21T04:31:32.715Z,1028.14
2019-03-21T04:32:13.302Z,1028.13
2019-03-21T04:32:53.850Z,1028.13
2019-03-21T04:33:34.408Z,1028.14
2019-03-21T04:34:14.961Z,1028.15
2019-03-21T04:34:55.518Z,1028.16
2019-03-21T04:35:36.076Z,1028.15
2019-03-21T04:36:16.622Z,1028.14
2019-03-21T04:36:57.177Z,1028.17
2019-03-21T04:37:37.757Z,1028.18
2019-03-21T04:38:18.329Z,1028.24
2019-03-21T04:38:58.890Z,1028.18
2019-03-21T04:39:39.451Z,1028.18
2019-03-21T04:40:20.007Z,1028.18
2019-03-21T04:41:00.575Z,1028.21
2019-03-21T04:41:41.138Z,1028.19
2019-03-21T04:42:21.690Z,1028.19
2019-03-21T04:43:02.250Z,1028.17
2019-03-21T04:43:42.818Z,1028.2
2019-03-21T04:44:23.395Z,1028.18
2019-03-21T04:45:03.951Z,1028.19
2019-03-21T04:45:44.512Z,1028.14
2019-03-21T04:46:25.140Z,1028.15
2019-03-21T04:47:05.706Z,1028.12
2019-03-21T04:47:46.276Z,1028.14
2019-03-21T04:48:26.839Z,1028.13
2019-03-21T04:49:07.402Z,1028.18
2019-03-21T04:49:47.971Z,1028.14
2019-03-21T04:50:28.537Z,1028.17
2019-03-21T04:51:09.097Z,1028.19
2019-03-21T04:51:49.661Z,1028.24
2019-03-21T04:52:30.210Z,1028.22
2019-03-21T04:53:10.777Z,1028.19
2019-03-21T04:53:53.358Z,1028.22
2019-03-21T04:54:31.926Z,1028.25
2019-03-21T04:55:12.484Z,1028.23
2019-03-21T04:55:53.049Z,1028.21
2019-03-21T04:56:33.637Z,1028.21
2019-03-21T04:57:14.729Z,1028.19
2019-03-21T04:57:54.763Z,1028.22
2019-03-21T04:58:35.367Z,1028.21
2019-03-21T04:59:15.935Z,1028.21
2019-03-21T04:59:56.502Z,1028.2
2019-03-21T05:00:37.093Z,1028.22
2019-03-21T05:01:17.738Z,1028.23
2019-03-21T05:01:58.288Z,1028.24
2019-03-21T05:02:38.848Z,1028.23
2019-03-21T05:03:19.411Z,1028.22
2019-03-21T05:03:59.962Z,1028.21
2019-03-21T05:04:40.510Z,1028.2
2019-03-21T05:05:21.082Z,1028.25
2019-03-21T05:06:01.645Z,1028.2
2019-03-21T05:06:42.196Z,1028.19
2019-03-21T05:07:22.749Z,1028.23
2019-03-21T05:08:03.335Z,1028.23
2019-03-21T05:08:43.887Z,1028.2
2019-03-21T05:09:24.447Z,1028.26
2019-03-21T05:10:05.043Z,1028.23
2019-03-21T05:10:45.677Z,1028.29
2019-03-21T05:11:26.222Z,1028.28
2019-03-21T05:12:06.801Z,1028.32
2019-03-21T05:12:47.358Z,1028.27
2019-03-21T05:13:27.913Z,1028.31
2019-03-21T05:14:08.478Z,1028.3
2019-03-21T05:14:49.049Z,1028.31
2019-03-21T05:15:29.692Z,1028.3
2019-03-21T05:16:14.521Z,1028.29
2019-03-21T05:16:50.829Z,1028.31
2019-03-21T05:17:31.385Z,1028.31
2019-03-21T05:18:11.948Z,1028.3
2019-03-21T05:18:52.520Z,1028.28
2019-03-21T05:19:33.066Z,1028.29
2019-03-21T05:20:14.436Z,1028.34
2019-03-21T05:20:54.198Z,1028.3
2019-03-21T05:21:34.773Z,1028.32
2019-03-21T05:22:15.433Z,1028.3
2019-03-21T05:22:55.980Z,1028.29
2019-03-21T05:23:36.548Z,1028.28
2019-03-21T05:24:17.122Z,1028.31
2019-03-21T05:24:57.726Z,1028.29
2019-03-21T05:25:38.303Z,1028.31
2019-03-21T05:26:18.844Z,1028.31
2019-03-21T05:26:59.410Z,1028.27
2019-03-21T05:27:39.976Z,1028.27
2019-03-21T05:28:20.536Z,1028.27
2019-03-21T05:29:01.123Z,1028.27
2019-03-21T05:29:41.694Z,1028.26
2019-03-21T05:30:22.264Z,1028.24
2019-03-21T05:31:02.816Z,1028.23
2019-03-21T05:31:43.380Z,1028.21
2019-03-21T05:32:23.947Z,1028.24
2019-03-21T05:33:04.518Z,1028.24
2019-03-21T05:33:45.069Z,1028.23
2019-03-21T05:34:25.628Z,1028.22
2019-03-21T05:35:06.206Z,1028.26
2019-03-21T05:35:46.856Z,1028.23
2019-03-21T05:36:27.418Z,1028.24
2019-03-21T05:37:07.970Z,1028.24
2019-03-21T05:37:48.536Z,1028.26
2019-03-21T05:38:29.083Z,1028.3
2019-03-21T05:39:09.653Z,1028.32
2019-03-21T05:39:50.205Z,1028.27
2019-03-21T05:40:30.749Z,1028.32
2019-03-21T05:41:11.327Z,1028.33
2019-03-21T05:41:51.895Z,1028.29
2019-03-21T05:42:32.459Z,1028.3
2019-03-21T05:43:13.009Z,1028.26
2019-03-21T05:43:53.599Z,1028.27
2019-03-21T05:44:34.191Z,1028.24
2019-03-21T05:45:14.750Z,1028.27
2019-03-21T05:45:55.314Z,1028.23
2019-03-21T05:46:35.875Z,1028.23
2019-03-21T05:47:16.443Z,1028.24
2019-03-21T05:47:57.011Z,1028.24
2019-03-21T05:48:37.572Z,1028.26
2019-03-21T05:49:18.365Z,1028.25
2019-03-21T05:49:58.854Z,1028.21
2019-03-21T05:50:39.434Z,1028.24
2019-03-21T05:51:20.004Z,1028.28
2019-03-21T05:52:00.577Z,1028.28
2019-03-21T05:52:41.157Z,1028.31
2019-03-21T05:53:21.704Z,1028.33
2019-03-21T05:54:02.265Z,1028.3
2019-03-21T05:54:42.843Z,1028.32
2019-03-21T05:55:23.408Z,1028.34
2019-03-21T05:56:03.981Z,1028.32
2019-03-21T05:56:44.558Z,1028.36
2019-03-21T05:57:25.109Z,1028.31
2019-03-21T05:58:05.657Z,1028.35
2019-03-21T05:58:46.234Z,1028.32
2019-03-21T05:59:26.825Z,1028.31
2019-03-21T06:00:07.428Z,1028.32
2019-03-21T06:00:51.121Z,1028.34
2019-03-21T06:01:28.631Z,1028.35
2019-03-21T06:02:09.183Z,1028.35
2019-03-21T06:02:49.743Z,1028.38
2019-03-21T06:03:30.306Z,1028.37
2019-03-21T06:04:10.898Z,1028.35
2019-03-21T06:04:51.544Z,1028.38
2019-03-21T06:05:32.161Z,1028.43
2019-03-21T06:06:12.750Z,1028.42
2019-03-21T06:06:53.329Z,1028.43
2019-03-21T06:07:33.879Z,1028.42
2019-03-21T06:08:14.443Z,1028.4
2019-03-21T06:08:55.008Z,1028.44
2019-03-21T06:09:35.681Z,1028.49
2019-03-21T06:10:16.333Z,1028.46
2019-03-21T06:10:56.925Z,1028.48
2019-03-21T06:11:39.550Z,1028.44
2019-03-21T06:12:18.217Z,1028.5
2019-03-21T06:12:58.837Z,1028.46
2019-03-21T06:13:39.389Z,1028.46
2019-03-21T06:14:19.979Z,1028.46
2019-03-21T06:15:00.563Z,1028.44
2019-03-21T06:15:41.225Z,1028.46
2019-03-21T06:16:21.842Z,1028.46
2019-03-21T06:17:02.481Z,1028.47
2019-03-21T06:17:43.513Z,1028.44
2019-03-21T06:18:24.112Z,1028.51
2019-03-21T06:19:04.717Z,1028.5
2019-03-21T06:19:45.429Z,1028.53
2019-03-21T06:20:26.031Z,1028.53
2019-03-21T06:21:06.676Z,1028.58
2019-03-21T06:21:47.237Z,1028.55
2019-03-21T06:22:27.825Z,1028.55
2019-03-21T06:23:08.430Z,1028.55
2019-03-21T06:23:49.024Z,1028.55
2019-03-21T06:24:29.636Z,1028.56
2019-03-21T06:25:10.436Z,1028.62
2019-03-21T06:25:51.028Z,1028.62
2019-03-21T06:26:31.574Z,1028.63
2019-03-21T06:27:14.592Z,1028.6
2019-03-21T06:27:52.703Z,1028.63
2019-03-21T06:28:33.308Z,1028.61
2019-03-21T06:29:13.850Z,1028.62
2019-03-21T06:29:54.413Z,1028.62
2019-03-21T06:30:35.014Z,1028.62
2019-03-21T06:31:15.593Z,1028.65
2019-03-21T06:31:56.253Z,1028.68
2019-03-21T06:32:36.879Z,1028.68
2019-03-21T06:33:17.505Z,1028.63
2019-03-21T06:33:58.133Z,1028.66
2019-03-21T06:34:38.744Z,1028.65
2019-03-21T06:35:19.345Z,1028.68
2019-03-21T06:35:59.914Z,1028.78
2019-03-21T06:36:40.470Z,1028.75
2019-03-21T06:37:21.045Z,1028.76
2019-03-21T06:38:01.594Z,1028.74
2019-03-21T06:38:42.155Z,1028.74
2019-03-21T06:39:24.653Z,1028.73
2019-03-21T06:40:05.256Z,1028.75
2019-03-21T06:40:45.804Z,1028.75
2019-03-21T06:41:26.382Z,1028.78
2019-03-21T06:42:06.983Z,1028.76
2019-03-21T06:45:48.042Z,1028.77
2019-03-21T06:46:27.737Z,1028.79
2019-03-21T06:47:08.348Z,1028.82
2019-03-21T06:47:55.531Z,1028.81
2019-03-21T06:48:36.090Z,1028.84
2019-03-21T06:53:37.658Z,1028.81
2019-03-21T06:54:18.326Z,1028.82
2019-03-21T06:54:59.896Z,1028.85
2019-03-21T06:55:39.722Z,1028.84
2019-03-21T06:56:20.354Z,1028.85
2019-03-21T06:57:02.491Z,1028.85
2019-03-21T06:57:41.548Z,1028.89
2019-03-21T06:58:22.217Z,1028.86
2019-03-21T06:59:02.858Z,1028.87
2019-03-21T06:59:43.458Z,1028.85
2019-03-21T07:00:25.059Z,1028.85
2019-03-21T07:01:04.626Z,1028.87
2019-03-21T07:01:49.858Z,1028.88
2019-03-21T07:02:30.417Z,1028.88
2019-03-21T07:03:10.974Z,1028.87
2019-03-21T07:03:51.562Z,1028.87
2019-03-21T07:04:32.139Z,1028.89
2019-03-21T07:05:12.752Z,1028.92
2019-03-21T07:05:53.549Z,1028.9
2019-03-21T07:06:34.909Z,1028.92
2019-03-21T07:07:15.548Z,1028.94
2019-03-21T07:07:56.099Z,1028.9
2019-03-21T07:08:37.617Z,1028.92
2019-03-21T07:09:19.336Z,1028.93
2019-03-21T07:10:00.786Z,1028.9
2019-03-21T07:10:41.454Z,1028.93
2019-03-21T07:13:11.137Z,1028.99
2019-03-21T07:13:51.701Z,1028.98
2019-03-21T07:14:32.587Z,1028.95
2019-03-21T07:20:51.276Z,1029.09
2019-03-21T07:21:31.840Z,1029.07
2019-03-21T07:22:12.614Z,1029.05
2019-03-21T07:22:52.991Z,1029.01
2019-03-21T07:23:33.548Z,1029.03
2019-03-21T07:24:14.424Z,1029.02
2019-03-21T07:24:55.008Z,1029.04
2019-03-21T07:25:36.721Z,1029.05
2019-03-21T07:26:17.584Z,1029.07
2019-03-21T07:26:58.232Z,1029.08
2019-03-21T07:27:40.370Z,1029.07
2019-03-21T07:28:21.195Z,1029.08
2019-03-21T07:29:01.767Z,1029.13
2019-03-21T07:29:42.393Z,1029.09
2019-03-21T07:30:22.886Z,1029.11
2019-03-21T07:31:03.458Z,1029.12
2019-03-21T07:31:44.109Z,1029.12
2019-03-21T07:32:33.019Z,1029.14
2019-03-21T07:33:05.386Z,1029.19
2019-03-21T07:33:46.159Z,1029.24
2019-03-21T07:34:27.135Z,1029.18
2019-03-21T07:35:07.706Z,1029.2
2019-03-21T07:35:48.328Z,1029.17
2019-03-21T07:36:29.089Z,1029.17
2019-03-21T07:37:11.739Z,1029.19
2019-03-21T07:37:50.593Z,1029.19
2019-03-21T07:38:31.155Z,1029.17
2019-03-21T07:39:11.740Z,1029.19
2019-03-21T07:39:52.400Z,1029.19
2019-03-21T07:40:33.006Z,1029.21
2019-03-21T07:41:13.554Z,1029.17
2019-03-21T07:41:54.127Z,1029.16
2019-03-21T07:42:34.682Z,1029.14
2019-03-21T07:43:15.267Z,1029.18
2019-03-21T07:43:55.843Z,1029.19
2019-03-21T07:44:36.433Z,1029.19
2019-03-21T07:45:17.481Z,1029.23
2019-03-21T07:45:57.584Z,1029.3
2019-03-21T07:46:38.149Z,1029.3
2019-03-21T07:47:18.868Z,1029.31
2019-03-21T07:50:48.947Z,1029.35
2019-03-21T07:51:29.503Z,1029.3
2019-03-21T07:52:10.057Z,1029.28
2019-03-21T07:52:50.655Z,1029.28
2019-03-21T07:53:31.205Z,1029.27
2019-03-21T07:54:11.855Z,1029.25
2019-03-21T07:54:52.431Z,1029.29
2019-03-21T07:55:32.998Z,1029.26
2019-03-21T07:56:13.538Z,1029.3
2019-03-21T07:56:54.156Z,1029.31
2019-03-21T07:57:34.794Z,1029.31
2019-03-21T07:58:16.654Z,1029.32
2019-03-21T07:58:58.085Z,1029.34
2019-03-21T07:59:38.697Z,1029.31
2019-03-21T08:00:19.373Z,1029.31
2019-03-21T08:01:00.011Z,1029.29
2019-03-21T08:01:40.591Z,1029.3
2019-03-21T08:02:21.411Z,1029.32
2019-03-21T08:03:03.005Z,1029.29
2019-03-21T08:03:44.329Z,1029.36
2019-03-21T08:04:25.143Z,1029.3
2019-03-21T08:05:05.705Z,1029.32
2019-03-21T08:05:46.261Z,1029.33
2019-03-21T08:06:26.893Z,1029.32
2019-03-21T08:07:07.508Z,1029.29
2019-03-21T08:07:48.040Z,1029.29
2019-03-21T08:08:28.744Z,1029.27
2019-03-21T08:09:09.322Z,1029.3
2019-03-21T08:09:50.868Z,1029.27
2019-03-21T08:10:30.465Z,1029.29
2019-03-21T08:11:11.006Z,1029.28
2019-03-21T08:11:51.676Z,1029.31
2019-03-21T08:12:32.225Z,1029.28
2019-03-21T08:13:12.808Z,1029.27
2019-03-21T08:13:53.374Z,1029.28
2019-03-21T08:14:33.937Z,1029.29
2019-03-21T08:15:14.508Z,1029.29
2019-03-21T08:15:55.078Z,1029.32
2019-03-21T08:16:35.611Z,1029.31
2019-03-21T08:17:16.177Z,1029.3
2019-03-21T08:17:56.741Z,1029.3
2019-03-21T08:18:37.282Z,1029.31
2019-03-21T08:19:17.825Z,1029.3
2019-03-21T08:19:58.386Z,1029.3
2019-03-21T08:20:38.948Z,1029.26
2019-03-21T08:21:19.498Z,1029.34
2019-03-21T08:22:00.071Z,1029.25
2019-03-21T08:22:40.638Z,1029.3
2019-03-21T08:23:21.190Z,1029.3
2019-03-21T08:24:01.757Z,1029.33
2019-03-21T08:24:42.320Z,1029.32
2019-03-21T08:25:22.876Z,1029.31
2019-03-21T08:26:03.442Z,1029.31
2019-03-21T08:26:44.002Z,1029.33
2019-03-21T08:27:24.595Z,1029.31
2019-03-21T08:28:05.348Z,1029.33
2019-03-21T08:28:47.742Z,1029.35
2019-03-21T08:29:28.508Z,1029.35
2019-03-21T08:30:09.087Z,1029.38
2019-03-21T08:30:50.023Z,1029.4